首页
METAR-TAF:

METAR-TAF

机场 :

剑桥湾, 努那武特, 加拿大

纬度: 69-06N, 经度: 105-07W, 海拔: 23米

当前天气观测

该预报发布于1小时和11分钟前的01:00 UTC
风速5节,风向
温度 -38°C
湿度 59%
气压 1017 hPa
能見度: 19.3公里
少量云层高于3000英尺
冰针

METAR: CYCB 230100Z 09005KT 12SM IC FEW030 M38/M43 A3004 RMK SC1 SC TR AURBO SLP181

时间: 19:11 (02:11 UTC)

预报

该预报发布于1小时和33分钟前的00:38 UTC
预报有效从23日的 01点(UTC)到 23日的 13点(UTC)
风速3节,风向多变
能見度: 10公里
少量云层高于4000英尺
短暂存在
从 23日的 01点(UTC)到 23日的 13点(UTC)
能見度: 8.0公里
冰针

TAF: CYCB 230038Z 2301/2313 VRB03KT P6SM FEW040 TEMPO 2301/2313 5SM IC RMK NXT FCST BY 230700Z

超过4000个机场的气象观测和天气预报(METAR&TAF报告)。

可查询的气象台以黄色和红色小点在地图上表示。

将鼠标移到小点上方,可查看气象台名称。

然后点击查看天气观测和预报。

如需切换地图:点击带黑十字的绿色按钮放大地图;点击带横线的绿色按钮缩小地图;或者点击绿色箭头查看邻近地区的地图。


METAR-TAF: